createdAt,value
2018-11-04T00:01:50.019Z,99744.19
2018-11-04T00:04:18.133Z,99748.94
2018-11-04T00:06:46.335Z,99740.67
2018-11-04T00:09:16.259Z,99737.20
2018-11-04T00:11:44.890Z,99735.09
2018-11-04T00:14:13.022Z,99731.25
2018-11-04T00:16:41.500Z,99731.68
2018-11-04T00:19:09.653Z,99735.09
2018-11-04T00:21:37.954Z,99734.59
2018-11-04T00:24:06.145Z,99733.31
2018-11-04T00:26:34.781Z,99726.42
2018-11-04T00:29:03.185Z,99721.61
2018-11-04T00:31:31.347Z,99721.91
2018-11-04T00:33:59.525Z,99714.41
2018-11-04T00:36:27.750Z,99708.67
2018-11-04T00:38:55.924Z,99708.02
2018-11-04T00:41:24.031Z,99703.08
2018-11-04T00:43:52.277Z,99698.70
2018-11-04T00:46:20.523Z,99699.41
2018-11-04T00:48:49.170Z,99695.06
2018-11-04T00:51:17.337Z,99689.41
2018-11-04T00:53:45.469Z,99685.48
2018-11-04T00:56:14.206Z,99684.45
2018-11-04T00:58:42.432Z,99681.20
2018-11-04T01:01:10.889Z,99684.48
2018-11-04T01:03:39.201Z,99673.70
2018-11-04T01:06:07.466Z,99678.87
2018-11-04T01:08:35.870Z,99677.87
2018-11-04T01:11:04.174Z,99667.61
2018-11-04T01:13:33.732Z,99664.64
2018-11-04T01:16:01.961Z,99669.34
2018-11-04T01:18:30.309Z,99665.77
2018-11-04T01:20:59.106Z,99662.38
2018-11-04T01:23:27.194Z,99667.70
2018-11-04T01:25:56.449Z,99657.33
2018-11-04T01:28:24.786Z,99661.50
2018-11-04T01:30:53.975Z,99644.37
2018-11-04T01:33:22.253Z,99645.95
2018-11-04T01:35:50.368Z,99649.20
2018-11-04T01:38:18.575Z,99652.20
2018-11-04T01:40:46.745Z,99638.44
2018-11-04T01:43:15.039Z,99638.45
2018-11-04T01:45:43.397Z,99637.49
2018-11-04T01:48:11.802Z,99628.17
2018-11-04T01:50:41.250Z,99629.22
2018-11-04T01:53:09.619Z,99623.81
2018-11-04T01:55:37.733Z,99623.05
2018-11-04T01:58:06.365Z,99614.09
2018-11-04T02:00:34.792Z,99616.71
2018-11-04T02:03:03.130Z,99611.86
2018-11-04T02:05:31.303Z,99603.24
2018-11-04T02:07:59.724Z,99596.39
2018-11-04T02:10:27.936Z,99588.22
2018-11-04T02:12:56.392Z,99584.89
2018-11-04T02:15:24.717Z,99583.59
2018-11-04T02:17:52.943Z,99584.20
2018-11-04T02:20:21.159Z,99582.13
2018-11-04T02:22:49.441Z,99573.34
2018-11-04T02:25:17.560Z,99571.20
2018-11-04T02:27:45.697Z,99568.98
2018-11-04T02:30:14.935Z,99573.72
2018-11-04T02:32:43.918Z,99564.71
2018-11-04T02:35:12.575Z,99562.09
2018-11-04T02:37:41.132Z,99560.39
2018-11-04T02:40:09.511Z,99558.22
2018-11-04T02:42:37.735Z,99554.23
2018-11-04T02:45:06.401Z,99557.83
2018-11-04T02:47:34.753Z,99561.38
2018-11-04T02:50:02.870Z,99554.41
2018-11-04T02:52:31.093Z,99550.78
2018-11-04T02:54:59.253Z,99545.22
2018-11-04T02:57:27.503Z,99540.53
2018-11-04T02:59:55.629Z,99541.13
2018-11-04T03:02:23.754Z,99536.01
2018-11-04T03:04:51.869Z,99535.02
2018-11-04T03:07:20.019Z,99531.14
2018-11-04T03:09:48.189Z,99530.97
2018-11-04T03:12:16.314Z,99526.55
2018-11-04T03:14:44.421Z,99524.58
2018-11-04T03:17:12.547Z,99521.02
2018-11-04T03:19:40.679Z,99528.48
2018-11-04T03:22:08.805Z,99521.44
2018-11-04T03:24:36.962Z,99523.52
2018-11-04T03:27:05.938Z,99518.77
2018-11-04T03:29:34.092Z,99519.59
2018-11-04T03:32:02.221Z,99530.45
2018-11-04T03:34:30.314Z,99532.68
2018-11-04T03:36:58.447Z,99533.75
2018-11-04T03:39:26.534Z,99532.31
2018-11-04T03:41:54.651Z,99522.75
2018-11-04T03:44:22.781Z,99520.52
2018-11-04T03:46:50.891Z,99513.98
2018-11-04T03:49:19.105Z,99516.05
2018-11-04T03:51:47.224Z,99512.56
2018-11-04T03:54:15.353Z,99507.80
2018-11-04T03:56:43.466Z,99511.30
2018-11-04T03:59:11.622Z,99512.54
2018-11-04T04:01:39.773Z,99509.00
2018-11-04T04:04:07.863Z,99511.82
2018-11-04T04:06:35.955Z,99510.02
2018-11-04T04:09:05.122Z,99509.07
2018-11-04T04:11:33.237Z,99500.66
2018-11-04T04:14:01.430Z,99492.41
2018-11-04T04:16:29.620Z,99495.05
2018-11-04T04:18:57.767Z,99492.85
2018-11-04T04:21:25.930Z,99495.61
2018-11-04T04:23:54.101Z,99493.73
2018-11-04T04:26:22.260Z,99494.11
2018-11-04T04:28:50.629Z,99486.61
2018-11-04T04:31:18.750Z,99476.13
2018-11-04T04:33:46.876Z,99478.20
2018-11-04T04:36:14.995Z,99484.61
2018-11-04T04:38:43.179Z,99474.87
2018-11-04T04:41:11.295Z,99476.52
2018-11-04T04:43:39.566Z,99476.43
2018-11-04T04:46:07.699Z,99482.79
2018-11-04T04:48:35.822Z,99475.73
2018-11-04T04:51:03.934Z,99477.34
2018-11-04T04:53:32.098Z,99483.66
2018-11-04T04:56:00.213Z,99477.53
2018-11-04T04:58:28.328Z,99477.91
2018-11-04T05:00:56.519Z,99469.36
2018-11-04T05:03:24.653Z,99469.66
2018-11-04T05:05:53.268Z,99466.59
2018-11-04T05:08:21.403Z,99464.86
2018-11-04T05:10:49.940Z,99459.63
2018-11-04T05:13:18.225Z,99463.49
2018-11-04T05:15:46.363Z,99469.04
2018-11-04T05:18:14.498Z,99464.54
2018-11-04T05:20:42.628Z,99458.70
2018-11-04T05:23:10.759Z,99460.55
2018-11-04T05:25:38.888Z,99460.78
2018-11-04T05:28:07.614Z,99459.28
2018-11-04T05:30:36.647Z,99460.09
2018-11-04T05:33:05.069Z,99461.08
2018-11-04T05:35:33.204Z,99452.66
2018-11-04T05:38:01.486Z,99448.34
2018-11-04T05:40:29.667Z,99446.67
2018-11-04T05:42:57.837Z,99448.56
2018-11-04T05:45:25.969Z,99450.31
2018-11-04T05:47:54.092Z,99443.31
2018-11-04T05:50:22.239Z,99443.31
2018-11-04T05:52:50.451Z,99439.16
2018-11-04T05:55:18.571Z,99441.12
2018-11-04T05:57:46.771Z,99429.70
2018-11-04T06:00:14.861Z,99433.35
2018-11-04T06:02:42.991Z,99428.78
2018-11-04T06:05:11.706Z,99427.59
2018-11-04T06:07:40.174Z,99429.87
2018-11-04T06:10:08.321Z,99425.04
2018-11-04T06:12:36.880Z,99424.33
2018-11-04T06:15:06.054Z,99430.45
2018-11-04T06:17:34.186Z,99420.11
2018-11-04T06:20:02.298Z,99423.59
2018-11-04T06:22:30.402Z,99422.16
2018-11-04T06:24:58.525Z,99418.63
2018-11-04T06:27:26.646Z,99418.22
2018-11-04T06:29:54.837Z,99421.70
2018-11-04T06:32:23.084Z,99415.94
2018-11-04T06:34:51.207Z,99412.42
2018-11-04T06:37:19.374Z,99408.42
2018-11-04T06:39:47.974Z,99412.65
2018-11-04T06:42:16.093Z,99405.64
2018-11-04T06:44:44.217Z,99413.80
2018-11-04T06:47:12.429Z,99416.72
2018-11-04T06:49:40.529Z,99417.45
2018-11-04T06:52:08.644Z,99417.90
2018-11-04T06:54:36.797Z,99425.55
2018-11-04T06:57:05.101Z,99425.94
2018-11-04T06:59:33.317Z,99428.49
2018-11-04T07:02:01.466Z,99430.67
2018-11-04T07:04:30.113Z,99430.16
2018-11-04T07:06:58.485Z,99429.35
2018-11-04T07:09:26.614Z,99430.50
2018-11-04T07:11:54.733Z,99433.35
2018-11-04T07:14:23.405Z,99438.54
2018-11-04T07:16:51.536Z,99432.78
2018-11-04T07:19:19.658Z,99427.95
2018-11-04T07:21:47.818Z,99426.28
2018-11-04T07:24:15.961Z,99426.22
2018-11-04T07:26:44.084Z,99427.98
2018-11-04T07:29:12.223Z,99422.92
2018-11-04T07:31:40.336Z,99425.28
2018-11-04T07:34:08.817Z,99424.70
2018-11-04T07:36:36.984Z,99433.06
2018-11-04T07:39:08.529Z,99420.23
2018-11-04T07:41:36.648Z,99421.31
2018-11-04T07:44:04.899Z,99429.70
2018-11-04T07:46:32.971Z,99428.01
2018-11-04T07:49:01.109Z,99430.55
2018-11-04T07:51:29.275Z,99430.23
2018-11-04T07:53:57.466Z,99421.19
2018-11-04T07:56:25.593Z,99426.16
2018-11-04T07:58:53.701Z,99432.69
2018-11-04T08:01:21.896Z,99431.30
2018-11-04T08:03:50.015Z,99425.91
2018-11-04T08:06:18.201Z,99421.05
2018-11-04T08:08:46.397Z,99421.52
2018-11-04T08:11:14.523Z,99414.56
2018-11-04T08:13:42.782Z,99408.03
2018-11-04T08:16:10.753Z,99407.25
2018-11-04T08:18:38.885Z,99402.73
2018-11-04T08:21:07.036Z,99408.55
2018-11-04T08:23:35.167Z,99405.87
2018-11-04T08:26:03.387Z,99397.62
2018-11-04T08:28:31.541Z,99400.09
2018-11-04T08:30:59.690Z,99394.66
2018-11-04T08:33:27.862Z,99385.97
2018-11-04T08:35:56.532Z,99385.24
2018-11-04T08:38:24.715Z,99386.64
2018-11-04T08:40:59.640Z,99382.59
2018-11-04T08:43:27.778Z,99385.31
2018-11-04T08:45:56.211Z,99377.42
2018-11-04T08:48:24.294Z,99377.75
2018-11-04T08:50:52.450Z,99375.09
2018-11-04T08:53:20.601Z,99365.23
2018-11-04T08:55:48.770Z,99369.24
2018-11-04T08:58:17.168Z,99367.05
2018-11-04T09:00:45.306Z,99374.74
2018-11-04T09:03:13.458Z,99372.20
2018-11-04T09:05:41.619Z,99374.69
2018-11-04T09:08:09.778Z,99369.04
2018-11-04T09:10:37.942Z,99374.56
2018-11-04T09:13:06.096Z,99372.46
2018-11-04T09:15:34.262Z,99376.69
2018-11-04T09:18:02.479Z,99374.83
2018-11-04T09:20:30.727Z,99377.73
2018-11-04T09:22:58.854Z,99375.22
2018-11-04T09:25:27.098Z,99372.09
2018-11-04T09:27:55.325Z,99373.30
2018-11-04T09:30:23.479Z,99377.11
2018-11-04T09:32:51.662Z,99376.27
2018-11-04T09:35:19.870Z,99371.41
2018-11-04T09:37:48.156Z,99371.47
2018-11-04T09:40:16.349Z,99374.13
2018-11-04T09:42:44.490Z,99372.12
2018-11-04T09:45:12.670Z,99371.99
2018-11-04T09:47:41.535Z,99365.83
2018-11-04T09:50:11.147Z,99377.53
2018-11-04T09:52:39.539Z,99368.53
2018-11-04T09:55:08.999Z,99375.19
2018-11-04T09:57:37.159Z,99372.36
2018-11-04T10:00:06.653Z,99372.95
2018-11-04T10:02:34.794Z,99372.24
2018-11-04T10:05:02.942Z,99368.87
2018-11-04T10:07:31.159Z,99362.08
2018-11-04T10:09:59.291Z,99359.27
2018-11-04T10:12:27.437Z,99348.52
2018-11-04T10:14:55.607Z,99348.58
2018-11-04T10:17:23.910Z,99340.41
2018-11-04T10:19:52.396Z,99334.47
2018-11-04T10:22:20.237Z,99326.55
2018-11-04T10:24:48.446Z,99328.08
2018-11-04T10:27:16.590Z,99322.39
2018-11-04T10:29:45.633Z,99317.98
2018-11-04T10:32:13.778Z,99313.44
2018-11-04T10:34:41.933Z,99304.98
2018-11-04T10:37:12.387Z,99299.85
2018-11-04T10:39:40.574Z,99287.95
2018-11-04T10:42:08.783Z,99288.95
2018-11-04T10:44:37.898Z,99283.22
2018-11-04T10:47:06.222Z,99277.75
2018-11-04T10:49:34.527Z,99268.13
2018-11-04T10:52:02.646Z,99265.66
2018-11-04T10:54:30.810Z,99275.15
2018-11-04T10:56:59.030Z,99264.74
2018-11-04T10:59:27.155Z,99260.50
2018-11-04T11:01:55.359Z,99257.23
2018-11-04T11:04:23.956Z,99253.23
2018-11-04T11:06:52.129Z,99248.88
2018-11-04T11:09:20.287Z,99243.09
2018-11-04T11:11:48.432Z,99238.56
2018-11-04T11:14:16.574Z,99228.77
2018-11-04T11:16:44.743Z,99227.14
2018-11-04T11:19:13.090Z,99220.81
2018-11-04T11:21:41.246Z,99224.63
2018-11-04T11:24:09.435Z,99214.00
2018-11-04T11:26:37.628Z,99218.25
2018-11-04T11:29:05.798Z,99210.72
2018-11-04T11:31:34.351Z,99206.78
2018-11-04T11:34:02.517Z,99203.30
2018-11-04T11:36:30.658Z,99205.57
2018-11-04T11:38:58.889Z,99197.00
2018-11-04T11:41:27.159Z,99188.85
2018-11-04T11:43:55.303Z,99189.62
2018-11-04T11:46:23.802Z,99179.16
2018-11-04T11:48:51.970Z,99175.06
2018-11-04T11:51:20.134Z,99162.32
2018-11-04T11:53:49.545Z,99157.95
2018-11-04T11:56:17.706Z,99156.24
2018-11-04T11:58:46.006Z,99148.88
2018-11-04T12:01:14.204Z,99143.95
2018-11-04T12:03:42.354Z,99149.49
2018-11-04T12:06:10.561Z,99139.02
2018-11-04T12:08:38.846Z,99132.29
2018-11-04T12:11:06.990Z,99131.20
2018-11-04T12:13:35.151Z,99126.52
2018-11-04T12:16:03.362Z,99116.95
2018-11-04T12:18:31.495Z,99116.47
2018-11-04T12:20:59.649Z,99121.55
2018-11-04T12:23:27.920Z,99116.81
2018-11-04T12:25:56.012Z,99119.92
2018-11-04T12:28:24.162Z,99104.68
2018-11-04T12:30:52.342Z,99106.52
2018-11-04T12:33:20.566Z,99106.80
2018-11-04T12:35:48.819Z,99106.34
2018-11-04T12:38:17.014Z,99106.00
2018-11-04T12:40:45.262Z,99100.19
2018-11-04T12:43:13.869Z,99097.44
2018-11-04T12:45:42.051Z,99095.25
2018-11-04T12:48:10.185Z,99097.31
2018-11-04T12:50:38.346Z,99101.06
2018-11-04T12:53:06.506Z,99100.97
2018-11-04T12:55:34.654Z,99096.59
2018-11-04T12:58:02.958Z,99094.55
2018-11-04T13:00:31.126Z,99086.52
2018-11-04T13:02:59.281Z,99085.41
2018-11-04T13:05:27.462Z,99075.22
2018-11-04T13:07:55.617Z,99066.25
2018-11-04T13:10:23.853Z,99063.31
2018-11-04T13:12:52.822Z,99060.19
2018-11-04T13:15:20.965Z,99048.09
2018-11-04T13:17:49.146Z,99034.86
2018-11-04T13:20:17.332Z,99020.71
2018-11-04T13:22:45.554Z,99017.84
2018-11-04T13:25:13.709Z,99008.08
2018-11-04T13:27:41.878Z,99006.88
2018-11-04T13:30:11.395Z,99001.14
2018-11-04T13:32:39.657Z,98998.38
2018-11-04T13:35:08.215Z,98990.05
2018-11-04T13:37:36.516Z,98978.20
2018-11-04T13:40:06.160Z,98969.83
2018-11-04T13:42:35.256Z,98965.70
2018-11-04T13:45:04.757Z,98976.38
2018-11-04T13:47:32.920Z,98981.44
2018-11-04T13:50:01.139Z,98983.62
2018-11-04T13:52:29.336Z,98985.67
2018-11-04T13:54:57.485Z,98979.03
2018-11-04T13:57:25.749Z,98975.99
2018-11-04T13:59:53.910Z,98970.66
2018-11-04T14:02:22.084Z,98966.54
2018-11-04T14:04:51.228Z,98974.03
2018-11-04T14:07:19.391Z,98971.62
2018-11-04T14:09:47.710Z,98964.55
2018-11-04T14:12:15.926Z,98966.12
2018-11-04T14:14:46.497Z,98968.29
2018-11-04T14:17:15.096Z,98960.03
2018-11-04T14:19:43.394Z,98953.39
2018-11-04T14:22:11.620Z,98955.69
2018-11-04T14:24:40.917Z,98955.23
2018-11-04T14:27:09.072Z,98953.79
2018-11-04T14:29:37.265Z,98955.36
2018-11-04T14:32:05.879Z,98956.57
2018-11-04T14:34:34.040Z,98975.33
2018-11-04T14:37:03.014Z,98973.39
2018-11-04T14:39:31.181Z,98959.14
2018-11-04T14:41:59.328Z,98948.50
2018-11-04T14:44:27.526Z,98952.13
2018-11-04T14:46:55.690Z,98947.64
2018-11-04T14:49:23.892Z,98949.09
2018-11-04T14:51:52.131Z,98943.98
2018-11-04T14:54:20.290Z,98945.92
2018-11-04T14:56:48.439Z,98950.77
2018-11-04T14:59:16.613Z,98950.52
2018-11-04T15:01:44.936Z,98955.38
2018-11-04T15:04:13.002Z,98955.24
2018-11-04T15:06:42.019Z,98958.41
2018-11-04T15:09:10.402Z,98945.94
2018-11-04T15:11:38.555Z,98934.72
2018-11-04T15:14:06.851Z,98930.73
2018-11-04T15:16:35.175Z,98926.17
2018-11-04T15:19:03.398Z,98927.99
2018-11-04T15:21:31.622Z,98929.70
2018-11-04T15:23:59.770Z,98927.77
2018-11-04T15:26:27.971Z,98927.51
2018-11-04T15:28:56.148Z,98921.47
2018-11-04T15:31:24.311Z,98919.20
2018-11-04T15:33:52.522Z,98913.28
2018-11-04T15:36:20.766Z,98910.59
2018-11-04T15:38:49.014Z,98912.18
2018-11-04T15:41:17.178Z,98909.17
2018-11-04T15:43:45.340Z,98912.05
2018-11-04T15:46:13.530Z,98907.12
2018-11-04T15:48:41.746Z,98902.03
2018-11-04T15:51:09.978Z,98898.89
2018-11-04T15:53:38.165Z,98892.11
2018-11-04T15:56:06.473Z,98889.79
2018-11-04T15:58:34.986Z,98892.05
2018-11-04T16:01:03.205Z,98878.88
2018-11-04T16:03:31.397Z,98884.30
2018-11-04T16:05:59.651Z,98883.17
2018-11-04T16:08:27.799Z,98879.17
2018-11-04T16:10:56.024Z,98873.44
2018-11-04T16:13:24.162Z,98874.27
2018-11-04T16:15:52.312Z,98874.63
2018-11-04T16:18:20.692Z,98870.39
2018-11-04T16:20:48.716Z,98880.93
2018-11-04T16:23:16.977Z,98873.54
2018-11-04T16:25:45.167Z,98874.01
2018-11-04T16:28:13.306Z,98887.11
2018-11-04T16:30:41.443Z,98887.73
2018-11-04T16:33:09.639Z,98886.89
2018-11-04T16:35:37.802Z,98890.94
2018-11-04T16:38:05.934Z,98897.53
2018-11-04T16:40:34.131Z,98892.83
2018-11-04T16:43:02.276Z,98889.81
2018-11-04T16:45:30.498Z,98874.69
2018-11-04T16:47:59.271Z,98860.06
2018-11-04T16:50:27.431Z,98869.81
2018-11-04T16:52:55.632Z,98877.46
2018-11-04T16:55:25.013Z,98888.51
2018-11-04T16:57:53.158Z,98889.03
2018-11-04T17:00:21.321Z,98885.70
2018-11-04T17:02:49.719Z,98882.47
2018-11-04T17:05:18.170Z,98891.62
2018-11-04T17:07:46.105Z,98897.23
2018-11-04T17:10:14.291Z,98903.02
2018-11-04T17:12:42.543Z,98906.59
2018-11-04T17:15:12.350Z,98901.61
2018-11-04T17:17:41.036Z,98904.91
2018-11-04T17:20:15.359Z,98918.69
2018-11-04T17:22:44.078Z,98922.95
2018-11-04T17:25:12.727Z,98919.19
2018-11-04T17:27:40.909Z,98918.81
2018-11-04T17:30:12.482Z,98916.67
2018-11-04T17:32:40.613Z,98907.31
2018-11-04T17:35:10.124Z,98900.62
2018-11-04T17:37:38.313Z,98901.48
2018-11-04T17:40:07.602Z,98889.14
2018-11-04T17:42:35.973Z,98875.64
2018-11-04T17:45:04.191Z,98872.80
2018-11-04T17:47:32.415Z,98878.11
2018-11-04T17:50:00.547Z,98875.34
2018-11-04T17:52:28.748Z,98864.50
2018-11-04T17:54:56.954Z,98863.87
2018-11-04T17:57:25.105Z,98862.88
2018-11-04T17:59:53.329Z,98863.52
2018-11-04T18:02:21.481Z,98859.42
2018-11-04T18:04:49.622Z,98862.67
2018-11-04T18:07:17.896Z,98864.84
2018-11-04T18:09:46.053Z,98868.13
2018-11-04T18:12:14.206Z,98861.98
2018-11-04T18:14:42.357Z,98857.73
2018-11-04T18:17:10.505Z,98848.00
2018-11-04T18:19:38.725Z,98841.37
2018-11-04T18:22:06.966Z,98842.87
2018-11-04T18:24:35.142Z,98850.33
2018-11-04T18:27:03.334Z,98848.91
2018-11-04T18:29:31.480Z,98843.68
2018-11-04T18:31:59.703Z,98853.48
2018-11-04T18:34:27.830Z,98841.62
2018-11-04T18:36:55.972Z,98846.83
2018-11-04T18:39:24.178Z,98843.36
2018-11-04T18:41:52.355Z,98842.70
2018-11-04T18:44:20.515Z,98849.69
2018-11-04T18:46:48.658Z,98856.19
2018-11-04T18:49:16.835Z,98846.54
2018-11-04T18:51:44.966Z,98845.34
2018-11-04T18:54:13.120Z,98851.59
2018-11-04T18:56:41.291Z,98858.84
2018-11-04T18:59:09.491Z,98858.88
2018-11-04T19:01:37.670Z,98866.30
2018-11-04T19:04:05.818Z,98869.41
2018-11-04T19:06:34.191Z,98864.98
2018-11-04T19:09:02.420Z,98858.33
2018-11-04T19:11:30.603Z,98854.11
2018-11-04T19:13:58.682Z,98853.59
2018-11-04T19:16:26.907Z,98854.06
2018-11-04T19:18:55.099Z,98842.77
2018-11-04T19:21:23.221Z,98837.53
2018-11-04T19:23:52.206Z,98843.81
2018-11-04T19:26:20.364Z,98844.66
2018-11-04T19:28:48.506Z,98848.77
2018-11-04T19:31:17.889Z,98843.05
2018-11-04T19:33:45.971Z,98842.95
2018-11-04T19:36:14.205Z,98854.23
2018-11-04T19:38:42.954Z,98842.78
2018-11-04T19:41:11.114Z,98844.13
2018-11-04T19:43:39.268Z,98853.13
2018-11-04T19:46:07.470Z,98853.70
2018-11-04T19:48:35.648Z,98849.72
2018-11-04T19:51:03.829Z,98853.57
2018-11-04T19:53:31.923Z,98854.73
2018-11-04T19:56:00.176Z,98852.51
2018-11-04T19:58:28.357Z,98852.80
2018-11-04T20:00:57.035Z,98852.68
2018-11-04T20:03:25.182Z,98853.05
2018-11-04T20:05:53.333Z,98850.08
2018-11-04T20:08:23.519Z,98841.72
2018-11-04T20:10:51.836Z,98842.03
2018-11-04T20:13:25.500Z,98840.48
2018-11-04T20:15:53.631Z,98841.80
2018-11-04T20:18:27.131Z,98852.28
2018-11-04T20:20:55.340Z,98851.52
2018-11-04T20:23:23.463Z,98845.10
2018-11-04T20:25:57.062Z,98848.61
2018-11-04T20:28:25.195Z,98856.43
2018-11-04T20:30:53.350Z,98856.22
2018-11-04T20:33:21.549Z,98856.31
2018-11-04T20:35:49.742Z,98853.19
2018-11-04T20:38:17.836Z,98844.20
2018-11-04T20:40:51.573Z,98838.52
2018-11-04T20:43:19.754Z,98836.91
2018-11-04T20:45:47.920Z,98835.20
2018-11-04T20:49:25.426Z,98830.20
2018-11-04T20:51:54.462Z,98832.70
2018-11-04T20:54:22.588Z,98836.00
2018-11-04T20:56:56.123Z,98834.44
2018-11-04T20:59:24.408Z,98830.41
2018-11-04T21:01:52.625Z,98824.33
2018-11-04T21:04:20.851Z,98826.91
2018-11-04T21:06:48.997Z,98830.66
2018-11-04T21:09:17.751Z,98832.55
2018-11-04T21:11:45.926Z,98829.26
2018-11-04T21:14:14.104Z,98822.53
2018-11-04T21:16:43.092Z,98814.70
2018-11-04T21:19:11.119Z,98813.84
2018-11-04T21:21:39.271Z,98811.31
2018-11-04T21:24:07.436Z,98810.16
2018-11-04T21:26:35.669Z,98806.62
2018-11-04T21:29:03.866Z,98801.09
2018-11-04T21:31:32.068Z,98792.63
2018-11-04T21:34:00.943Z,98791.47
2018-11-04T21:36:29.171Z,98789.80
2018-11-04T21:38:57.354Z,98774.55
2018-11-04T21:41:25.664Z,98771.77
2018-11-04T21:43:54.082Z,98770.67
2018-11-04T21:46:22.924Z,98759.11
2018-11-04T21:48:51.054Z,98747.37
2018-11-04T21:51:19.210Z,98750.43
2018-11-04T21:53:47.371Z,98749.33
2018-11-04T21:56:15.750Z,98750.70
2018-11-04T21:58:43.885Z,98745.30
2018-11-04T22:01:12.035Z,98737.00
2018-11-04T22:03:40.544Z,98745.77
2018-11-04T22:06:08.583Z,98742.66
2018-11-04T22:08:36.743Z,98739.15
2018-11-04T22:11:04.873Z,98738.48
2018-11-04T22:13:33.114Z,98737.56
2018-11-04T22:16:01.229Z,98742.13
2018-11-04T22:18:29.363Z,98759.34
2018-11-04T22:20:57.599Z,98754.86
2018-11-04T22:23:25.915Z,98748.52
2018-11-04T22:25:54.098Z,98743.63
2018-11-04T22:28:22.240Z,98740.00
2018-11-04T22:30:50.384Z,98728.78
2018-11-04T22:33:18.654Z,98729.67
2018-11-04T22:35:46.797Z,98733.91
2018-11-04T22:38:14.955Z,98738.20
2018-11-04T22:40:43.121Z,98733.26
2018-11-04T22:43:11.359Z,98738.71
2018-11-04T22:45:39.529Z,98730.61
2018-11-04T22:48:07.720Z,98726.91
2018-11-04T22:50:35.886Z,98741.94
2018-11-04T22:53:04.026Z,98738.13
2018-11-04T22:55:32.209Z,98730.92
2018-11-04T22:58:06.503Z,98739.14
2018-11-04T23:00:42.894Z,98730.65
2018-11-04T23:03:11.356Z,98734.50
2018-11-04T23:05:39.523Z,98739.41
2018-11-04T23:08:08.330Z,98746.54
2018-11-04T23:10:36.694Z,98740.86
2018-11-04T23:13:04.898Z,98746.89
2018-11-04T23:15:33.069Z,98753.20
2018-11-04T23:18:02.393Z,98747.40
2018-11-04T23:20:32.722Z,98752.81
2018-11-04T23:23:02.955Z,98740.08
2018-11-04T23:25:34.035Z,98738.28
2018-11-04T23:28:03.139Z,98730.60
2018-11-04T23:30:32.125Z,98725.66
2018-11-04T23:33:00.911Z,98729.55
2018-11-04T23:35:29.099Z,98729.20
2018-11-04T23:37:57.255Z,98735.37
2018-11-04T23:40:25.460Z,98732.47
2018-11-04T23:42:53.780Z,98719.42
2018-11-04T23:45:21.910Z,98706.53
2018-11-04T23:47:50.052Z,98705.82
2018-11-04T23:50:18.377Z,98694.66
2018-11-04T23:52:46.679Z,98690.93
2018-11-04T23:55:15.507Z,98681.19
2018-11-04T23:57:44.408Z,98670.56
